Ana Sayfa
METAR-TAF:

METAR-TAF

Havaalanları :

Tahran, İran

Mehrabad Havalimanı

Enlem: 35-41N, Boylam: 051-21E, yükseklik: 1204 m

Güncel hava durumu gözlemi

Rapor saat 22:00 UTC de 16 dakika önce yapıldı.
Rüzgar batı/kuzeybatıdan 6 kt
Sıcaklık 4°C
Nem 52%
Basınç 1020 hPa
Görüş mesafesi 10 km veya daha fazla
1500 m altında bulut yok ve kümülonimbus yok

METAR: OIII 212200Z 30006KT CAVOK 04/M05 Q1019 A3011

Saat: 01:46 (22:16 UTC)

Tahmin

Rapor saat 17:10 UTC de 5 saat ve 6 dakika önce yapıldı.
Ayın 21'si saat 18 UTC'den ayın 22'si saat 24 UTC'ye kadar geçerli Tahmin
Rüzgar batıdan 6 kt
Görüş mesafesi: 7000 m
Geçici
ayın 22'si saat 02 UTC'den ayın 22'si saat 07 UTC'ye kadar
Görüş mesafesi: 4000 m
Toz Pusu

TAF: OIII 211710Z 2118/2224 27003MPS 7000 NSC TEMPO 2202/2207 4000 HZ

4.000'den fazla havaalanı için hava durumu gözlemleri ve tahminleri (METAR ve TAF raporları).

Kullanılabilir istasyonlar harita üzerinde sarı ve kırmızı noktalarla gösterilir.

İstasyonun adını görmek için fareyi noktanın üzerinde gezdirin.

Sonrasında hava gözlem ve tahminlerini görmek için tıklayın.

Haritayı değiştirmek için: yaklaştırmak için siyah artı işaretli yeşil düğmeye ve uzaklaştırmak için de eksi işaretli düğmeye hızla tıklayın; bitişik haritalar için yeşil okları kullanın.


METAR-TAF: